createdAt,value
2019-03-06T00:00:51.491Z,72.23
2019-03-06T00:03:23.438Z,72.16
2019-03-06T00:05:54.629Z,72.08
2019-03-06T00:08:25.731Z,72.89
2019-03-06T00:10:57.029Z,73.34
2019-03-06T00:13:28.276Z,72.84
2019-03-06T00:15:59.571Z,73.12
2019-03-06T00:18:30.812Z,72.48
2019-03-06T00:21:01.995Z,72.58
2019-03-06T00:23:33.285Z,73.07
2019-03-06T00:26:05.024Z,73.48
2019-03-06T00:28:36.274Z,73.69
2019-03-06T00:31:07.712Z,74.06
2019-03-06T00:33:38.912Z,74.61
2019-03-06T00:36:16.519Z,75.07
2019-03-06T00:38:47.817Z,75.78
2019-03-06T00:41:37.790Z,76.34
2019-03-06T00:44:09.154Z,76.89
2019-03-06T00:46:40.368Z,77.23
2019-03-06T00:49:11.642Z,77.32
2019-03-06T00:51:42.914Z,77.36
2019-03-06T00:54:14.249Z,77.17
2019-03-06T00:56:45.461Z,76.80
2019-03-06T00:59:16.743Z,76.00
2019-03-06T01:01:48.126Z,76.88
2019-03-06T01:04:19.577Z,77.36
2019-03-06T01:06:50.695Z,77.19
2019-03-06T01:09:21.911Z,76.86
2019-03-06T01:11:53.251Z,78.01
2019-03-06T01:14:24.541Z,78.25
2019-03-06T01:16:55.755Z,78.23
2019-03-06T01:19:27.037Z,77.92
2019-03-06T01:21:58.223Z,78.36
2019-03-06T01:24:29.341Z,79.07
2019-03-06T01:27:00.585Z,79.39
2019-03-06T01:29:31.681Z,79.46
2019-03-06T01:32:02.887Z,78.68
2019-03-06T01:34:48.205Z,78.77
2019-03-06T01:37:33.419Z,79.69
2019-03-06T01:40:29.311Z,79.66
2019-03-06T01:43:11.579Z,80.10
2019-03-06T01:45:42.809Z,80.24
2019-03-06T01:48:14.039Z,80.58
2019-03-06T01:50:45.297Z,80.81
2019-03-06T01:53:16.502Z,80.55
2019-03-06T01:55:47.764Z,80.65
2019-03-06T01:58:19.080Z,80.98
2019-03-06T02:00:50.355Z,81.37
2019-03-06T02:03:21.541Z,81.25
2019-03-06T02:05:52.749Z,81.78
2019-03-06T02:08:23.983Z,81.86
2019-03-06T02:10:55.343Z,81.83
2019-03-06T02:13:26.591Z,81.87
2019-03-06T02:15:57.805Z,81.88
2019-03-06T02:18:29.253Z,82.14
2019-03-06T02:21:00.694Z,82.61
2019-03-06T02:23:31.936Z,82.95
2019-03-06T02:26:03.217Z,82.89
2019-03-06T02:28:34.356Z,83.23
2019-03-06T02:31:05.596Z,83.00
2019-03-06T02:33:36.842Z,83.02
2019-03-06T02:36:08.087Z,83.28
2019-03-06T02:38:39.312Z,82.96
2019-03-06T02:41:10.436Z,82.74
2019-03-06T02:43:41.764Z,82.94
2019-03-06T02:46:12.880Z,83.48
2019-03-06T02:48:44.183Z,82.93
2019-03-06T02:51:15.330Z,83.24
2019-03-06T02:53:46.486Z,83.21
2019-03-06T02:56:17.738Z,83.31
2019-03-06T02:59:09.598Z,83.07
2019-03-06T03:01:55.390Z,83.23
2019-03-06T03:04:36.951Z,83.64
2019-03-06T03:07:11.419Z,83.24
2019-03-06T03:09:42.833Z,82.40
2019-03-06T03:12:14.101Z,82.54
2019-03-06T03:14:45.288Z,82.62
2019-03-06T03:17:16.500Z,82.92
2019-03-06T03:19:47.738Z,82.42
2019-03-06T03:22:18.990Z,82.17
2019-03-06T03:24:50.118Z,82.35
2019-03-06T03:27:21.359Z,81.96
2019-03-06T03:29:52.501Z,81.75
2019-03-06T03:32:23.825Z,81.82
2019-03-06T03:34:55.097Z,82.16
2019-03-06T03:37:26.432Z,81.83
2019-03-06T03:39:57.659Z,82.10
2019-03-06T03:42:29.139Z,82.36
2019-03-06T03:45:00.549Z,82.45
2019-03-06T03:47:31.766Z,82.70
2019-03-06T03:50:03.052Z,82.86
2019-03-06T03:52:34.217Z,83.09
2019-03-06T03:55:05.948Z,82.62
2019-03-06T03:57:37.233Z,82.14
2019-03-06T04:00:11.001Z,81.90
2019-03-06T04:02:42.371Z,81.56
2019-03-06T04:05:14.615Z,81.81
2019-03-06T04:07:45.951Z,81.80
2019-03-06T04:10:17.229Z,81.46
2019-03-06T04:12:48.554Z,81.08
2019-03-06T04:15:20.126Z,81.17
2019-03-06T04:17:51.423Z,81.57
2019-03-06T04:20:22.671Z,80.88
2019-03-06T04:22:53.986Z,80.35
2019-03-06T04:25:25.236Z,79.76
2019-03-06T04:27:56.440Z,80.32
2019-03-06T04:30:27.741Z,80.84
2019-03-06T04:32:58.980Z,80.54
2019-03-06T04:35:30.285Z,80.63
2019-03-06T04:38:01.825Z,80.28
2019-03-06T04:40:33.077Z,80.29
2019-03-06T04:43:04.181Z,80.28
2019-03-06T04:45:35.430Z,80.02
2019-03-06T04:48:06.625Z,80.24
2019-03-06T04:50:37.865Z,79.85
2019-03-06T04:53:08.986Z,80.11
2019-03-06T04:55:40.190Z,79.58
2019-03-06T04:58:11.346Z,79.93
2019-03-06T05:00:42.618Z,79.30
2019-03-06T05:03:13.835Z,80.08
2019-03-06T05:05:45.038Z,79.88
2019-03-06T05:08:16.209Z,79.13
2019-03-06T05:10:47.685Z,79.63
2019-03-06T05:13:18.913Z,79.24
2019-03-06T05:15:50.123Z,78.62
2019-03-06T05:18:43.331Z,78.99
2019-03-06T05:21:14.513Z,79.58
2019-03-06T05:23:45.825Z,79.30
2019-03-06T05:26:16.996Z,79.37
2019-03-06T05:28:48.207Z,79.08
2019-03-06T05:31:19.459Z,78.96
2019-03-06T05:33:50.764Z,79.38
2019-03-06T05:37:20.099Z,79.51
2019-03-06T05:39:51.463Z,79.78
2019-03-06T05:42:22.606Z,79.43
2019-03-06T05:44:54.223Z,79.56
2019-03-06T05:47:25.458Z,79.09
2019-03-06T05:49:56.679Z,79.01
2019-03-06T05:52:27.825Z,79.05
2019-03-06T05:54:58.963Z,79.44
2019-03-06T05:57:30.178Z,79.62
2019-03-06T06:00:01.397Z,79.21
2019-03-06T06:02:32.676Z,79.06
2019-03-06T06:05:03.956Z,79.45
2019-03-06T06:07:35.236Z,79.19
2019-03-06T06:10:06.956Z,79.51
2019-03-06T06:12:38.187Z,79.02
2019-03-06T06:15:10.849Z,79.07
2019-03-06T06:17:42.100Z,78.90
2019-03-06T06:20:13.427Z,78.41
2019-03-06T06:22:53.154Z,78.02
2019-03-06T06:25:24.384Z,77.72
2019-03-06T06:27:55.666Z,77.81
2019-03-06T06:30:26.968Z,77.73
2019-03-06T06:32:58.334Z,77.62
2019-03-06T06:35:29.577Z,77.45
2019-03-06T06:38:00.828Z,77.09
2019-03-06T06:40:32.065Z,77.43
2019-03-06T06:43:03.311Z,77.05
2019-03-06T06:45:34.772Z,76.54
2019-03-06T06:48:14.953Z,76.28
2019-03-06T06:51:00.954Z,75.67
2019-03-06T06:53:59.684Z,76.01
2019-03-06T06:57:42.864Z,75.29
2019-03-06T07:01:28.207Z,75.27
2019-03-06T07:04:39.221Z,74.69
2019-03-06T07:07:22.165Z,74.07
2019-03-06T07:10:10.845Z,73.56
2019-03-06T07:12:58.114Z,73.22
2019-03-06T07:15:39.444Z,73.42
2019-03-06T07:18:25.120Z,73.04
2019-03-06T07:21:10.882Z,72.71
2019-03-06T07:23:57.478Z,72.13
2019-03-06T07:26:47.922Z,72.64
2019-03-06T07:29:33.877Z,72.05
2019-03-06T07:32:39.030Z,72.11
2019-03-06T07:36:16.917Z,71.74
2019-03-06T07:38:49.136Z,71.74
2019-03-06T07:41:39.194Z,71.36
2019-03-06T07:44:31.125Z,71.02
2019-03-06T07:47:19.753Z,71.60
2019-03-06T07:49:57.681Z,69.97
2019-03-06T07:52:46.379Z,69.21
2019-03-06T07:55:40.716Z,69.34
2019-03-06T07:58:56.759Z,68.41
2019-03-06T08:01:31.284Z,67.50
2019-03-06T08:04:14.460Z,67.23
2019-03-06T08:06:55.362Z,66.12
2019-03-06T08:09:26.653Z,65.47
2019-03-06T08:12:14.222Z,64.28
2019-03-06T08:15:02.657Z,63.84
2019-03-06T08:17:52.680Z,63.77
2019-03-06T08:20:34.212Z,62.92
2019-03-06T08:23:33.359Z,62.62
2019-03-06T08:26:05.738Z,61.83
2019-03-06T08:28:38.559Z,61.23
2019-03-06T08:31:31.717Z,60.05
2019-03-06T08:34:03.021Z,60.39
2019-03-06T08:36:34.465Z,59.31
2019-03-06T08:39:16.277Z,59.77
2019-03-06T08:41:47.669Z,57.85
2019-03-06T08:44:19.023Z,58.03
2019-03-06T08:47:05.043Z,56.89
2019-03-06T08:50:02.312Z,55.67
2019-03-06T08:52:41.243Z,55.46
2019-03-06T08:55:34.366Z,55.74
2019-03-06T08:58:21.174Z,56.72
2019-03-06T09:01:11.312Z,55.05
2019-03-06T09:04:16.519Z,56.13
2019-03-06T09:07:07.161Z,55.81
2019-03-06T09:09:56.000Z,54.99
2019-03-06T09:12:55.370Z,54.39
2019-03-06T09:15:43.592Z,54.69
2019-03-06T09:18:39.784Z,54.24
2019-03-06T09:21:25.465Z,54.68
2019-03-06T09:24:13.027Z,53.71
2019-03-06T09:27:06.281Z,53.63
2019-03-06T09:29:56.448Z,52.09
2019-03-06T09:32:49.561Z,52.59
2019-03-06T09:35:48.334Z,51.52
2019-03-06T09:38:41.627Z,50.78
2019-03-06T09:41:30.786Z,51.04
2019-03-06T09:44:26.963Z,51.87
2019-03-06T09:47:08.759Z,51.37
2019-03-06T09:49:57.455Z,50.84
2019-03-06T09:52:48.734Z,51.14
2019-03-06T09:55:51.060Z,50.93
2019-03-06T09:58:50.116Z,50.91
2019-03-06T10:01:43.262Z,50.96
2019-03-06T10:04:31.585Z,49.64
2019-03-06T10:07:21.711Z,49.48
2019-03-06T10:10:01.905Z,49.36
2019-03-06T10:12:47.207Z,49.69
2019-03-06T10:15:25.853Z,49.61
2019-03-06T10:18:18.712Z,48.54
2019-03-06T10:20:50.007Z,47.88
2019-03-06T10:23:21.269Z,47.52
2019-03-06T10:25:52.897Z,47.36
2019-03-06T10:31:02.394Z,46.06
2019-03-06T10:33:30.244Z,45.85
2019-03-06T10:36:01.867Z,45.97
2019-03-06T10:38:33.461Z,45.25
2019-03-06T10:41:05.093Z,45.77
2019-03-06T10:43:37.470Z,45.92
2019-03-06T10:46:09.064Z,46.16
2019-03-06T10:48:43.106Z,45.82
2019-03-06T10:51:16.402Z,45.96
2019-03-06T10:53:54.578Z,45.00
2019-03-06T10:56:35.929Z,46.53
2019-03-06T10:59:08.279Z,47.79
2019-03-06T11:01:39.987Z,45.64
2019-03-06T11:04:25.795Z,46.29
2019-03-06T11:06:57.287Z,46.08
2019-03-06T11:09:29.416Z,44.89
2019-03-06T11:12:00.908Z,45.11
2019-03-06T11:14:32.461Z,44.54
2019-03-06T11:17:15.468Z,43.75
2019-03-06T11:19:49.962Z,43.97
2019-03-06T11:22:21.232Z,43.91
2019-03-06T11:24:55.543Z,43.44
2019-03-06T11:27:26.798Z,43.48
2019-03-06T11:29:58.266Z,43.84
2019-03-06T11:32:30.109Z,43.19
2019-03-06T11:35:01.509Z,42.64
2019-03-06T11:37:34.319Z,42.52
2019-03-06T11:40:09.664Z,44.17
2019-03-06T11:42:41.371Z,44.26
2019-03-06T11:45:15.576Z,43.92
2019-03-06T11:47:50.040Z,41.44
2019-03-06T11:50:21.730Z,41.16
2019-03-06T11:52:53.463Z,41.83
2019-03-06T11:55:25.876Z,40.45
2019-03-06T11:57:57.556Z,40.72
2019-03-06T12:00:43.267Z,42.06
2019-03-06T12:03:17.078Z,40.60
2019-03-06T12:05:50.594Z,39.94
2019-03-06T12:08:22.836Z,40.50
2019-03-06T12:10:56.576Z,40.22
2019-03-06T12:13:27.976Z,41.72
2019-03-06T12:15:59.344Z,40.59
2019-03-06T12:18:34.923Z,39.64
2019-03-06T12:21:06.321Z,40.29
2019-03-06T12:23:37.602Z,39.96
2019-03-06T12:26:08.982Z,40.25
2019-03-06T12:28:40.757Z,39.93
2019-03-06T12:31:13.025Z,40.14
2019-03-06T12:33:44.388Z,40.15
2019-03-06T12:36:15.833Z,40.67
2019-03-06T12:38:50.512Z,40.56
2019-03-06T12:41:22.067Z,40.80
2019-03-06T12:43:53.848Z,41.17
2019-03-06T12:46:26.677Z,42.53
2019-03-06T12:49:07.177Z,42.46
2019-03-06T12:51:39.423Z,42.19
2019-03-06T12:54:11.174Z,41.34
2019-03-06T12:56:42.407Z,41.46
2019-03-06T12:59:14.227Z,44.00
2019-03-06T13:01:45.514Z,42.93
2019-03-06T13:04:16.837Z,43.88
2019-03-06T13:06:48.085Z,43.18
2019-03-06T13:09:22.910Z,43.06
2019-03-06T13:11:54.218Z,44.32
2019-03-06T13:14:25.683Z,44.42
2019-03-06T13:16:57.692Z,44.67
2019-03-06T13:19:29.423Z,44.78
2019-03-06T13:22:00.745Z,45.54
2019-03-06T13:24:32.054Z,45.10
2019-03-06T13:27:03.560Z,45.70
2019-03-06T13:29:39.433Z,45.78
2019-03-06T13:32:12.264Z,45.15
2019-03-06T13:34:54.482Z,44.62
2019-03-06T13:37:25.458Z,44.79
2019-03-06T13:40:03.280Z,44.01
2019-03-06T13:42:33.936Z,43.99
2019-03-06T13:45:05.567Z,44.48
2019-03-06T13:47:36.837Z,44.82
2019-03-06T13:50:11.806Z,45.15
2019-03-06T13:52:43.247Z,45.66
2019-03-06T13:55:23.484Z,45.68
2019-03-06T13:58:00.354Z,47.08
2019-03-06T14:00:31.808Z,45.47
2019-03-06T14:03:03.071Z,46.05
2019-03-06T14:05:34.463Z,46.82
2019-03-06T14:08:07.397Z,46.91
2019-03-06T14:10:38.900Z,46.92
2019-03-06T14:13:10.111Z,46.86
2019-03-06T14:15:41.390Z,46.55
2019-03-06T14:18:14.783Z,46.63
2019-03-06T14:20:46.196Z,47.81
2019-03-06T14:23:17.647Z,47.12
2019-03-06T14:25:48.928Z,46.64
2019-03-06T14:28:20.136Z,47.40
2019-03-06T14:30:51.510Z,47.23
2019-03-06T14:33:25.389Z,47.52
2019-03-06T14:35:57.038Z,48.37
2019-03-06T14:38:28.248Z,47.74
2019-03-06T14:41:00.442Z,49.47
2019-03-06T14:43:31.769Z,48.67
2019-03-06T14:46:03.177Z,49.24
2019-03-06T14:48:34.468Z,50.68
2019-03-06T14:51:05.932Z,51.62
2019-03-06T14:53:37.382Z,53.89
2019-03-06T14:56:09.277Z,53.19
2019-03-06T14:58:40.967Z,55.14
2019-03-06T15:01:12.349Z,55.34
2019-03-06T15:03:43.446Z,57.01
2019-03-06T15:06:14.944Z,59.77
2019-03-06T15:08:46.305Z,59.30
2019-03-06T15:11:17.767Z,61.89
2019-03-06T15:13:49.366Z,59.49
2019-03-06T15:16:20.649Z,59.29
2019-03-06T15:18:52.029Z,59.35
2019-03-06T15:21:23.368Z,59.13
2019-03-06T15:23:54.824Z,58.07
2019-03-06T15:26:26.077Z,59.42
2019-03-06T15:28:57.470Z,59.65
2019-03-06T15:31:28.793Z,59.55
2019-03-06T15:34:00.174Z,58.32
2019-03-06T15:36:32.703Z,59.53
2019-03-06T15:39:06.110Z,58.59
2019-03-06T15:41:37.367Z,58.91
2019-03-06T15:44:08.683Z,60.20
2019-03-06T15:46:40.108Z,59.16
2019-03-06T15:49:11.531Z,59.62
2019-03-06T15:51:42.816Z,60.30
2019-03-06T15:54:15.019Z,60.58
2019-03-06T15:56:46.435Z,60.02
2019-03-06T15:59:17.932Z,59.64
2019-03-06T16:01:49.440Z,59.11
2019-03-06T16:04:20.942Z,59.08
2019-03-06T16:06:54.290Z,60.47
2019-03-06T16:09:25.737Z,59.67
2019-03-06T16:11:57.423Z,59.42
2019-03-06T16:14:28.859Z,60.10
2019-03-06T16:17:00.148Z,60.73
2019-03-06T16:19:31.385Z,59.46
2019-03-06T16:22:02.830Z,60.46
2019-03-06T16:24:34.208Z,59.81
2019-03-06T16:27:05.698Z,60.25
2019-03-06T16:29:36.999Z,60.78
2019-03-06T16:32:08.655Z,60.94
2019-03-06T16:34:40.431Z,61.89
2019-03-06T16:37:11.833Z,61.31
2019-03-06T16:39:44.500Z,61.93
2019-03-06T16:42:23.778Z,62.92
2019-03-06T16:44:55.386Z,62.75
2019-03-06T16:47:27.028Z,63.26
2019-03-06T16:49:59.031Z,64.18
2019-03-06T16:52:32.455Z,64.07
2019-03-06T16:55:03.931Z,63.98
2019-03-06T16:57:35.263Z,64.38
2019-03-06T17:00:26.340Z,64.29
2019-03-06T17:02:58.252Z,64.67
2019-03-06T17:05:30.374Z,64.83
2019-03-06T17:08:02.724Z,65.45
2019-03-06T17:10:34.546Z,66.08
2019-03-06T17:13:06.744Z,65.85
2019-03-06T17:15:38.286Z,66.25
2019-03-06T17:18:09.744Z,66.63
2019-03-06T17:20:41.163Z,67.30
2019-03-06T17:23:12.694Z,66.35
2019-03-06T17:25:44.316Z,67.76
2019-03-06T17:28:15.651Z,68.85
2019-03-06T17:30:47.161Z,67.90
2019-03-06T17:33:19.027Z,68.17
2019-03-06T17:35:50.351Z,68.19
2019-03-06T17:38:21.869Z,68.29
2019-03-06T17:40:53.576Z,69.57
2019-03-06T17:43:24.966Z,69.61
2019-03-06T17:45:56.495Z,70.80
2019-03-06T17:48:28.077Z,71.04
2019-03-06T17:51:01.887Z,71.30
2019-03-06T17:53:38.239Z,71.74
2019-03-06T17:56:11.664Z,72.09
2019-03-06T17:58:43.472Z,72.80
2019-03-06T18:01:19.430Z,73.02
2019-03-06T18:03:57.025Z,73.17
2019-03-06T18:06:28.449Z,73.14
2019-03-06T18:08:59.812Z,74.01
2019-03-06T18:11:33.217Z,74.09
2019-03-06T18:14:05.764Z,73.70
2019-03-06T18:16:37.425Z,73.83
2019-03-06T18:19:08.757Z,73.90
2019-03-06T18:21:40.095Z,74.24
2019-03-06T18:24:11.331Z,73.46
2019-03-06T18:26:42.713Z,74.13
2019-03-06T18:29:14.015Z,74.71
2019-03-06T18:31:45.354Z,74.58
2019-03-06T18:34:19.684Z,73.41
2019-03-06T18:36:52.291Z,73.95
2019-03-06T18:39:29.432Z,74.05
2019-03-06T18:42:01.084Z,75.06
2019-03-06T18:44:35.302Z,75.21
2019-03-06T18:47:06.615Z,73.95
2019-03-06T18:49:37.990Z,73.85
2019-03-06T18:52:09.412Z,73.77
2019-03-06T18:54:40.761Z,73.81
2019-03-06T18:57:13.418Z,74.26
2019-03-06T18:59:46.599Z,74.49
2019-03-06T19:02:24.544Z,74.33
2019-03-06T19:04:58.476Z,74.81
2019-03-06T19:07:29.899Z,74.83
2019-03-06T19:10:01.791Z,74.93
2019-03-06T19:12:32.979Z,74.06
2019-03-06T19:15:05.039Z,75.26
2019-03-06T19:17:39.190Z,75.38
2019-03-06T19:20:16.090Z,75.31
2019-03-06T19:22:48.190Z,75.33
2019-03-06T19:25:20.029Z,75.56
2019-03-06T19:27:51.777Z,75.31
2019-03-06T19:30:26.949Z,75.23
2019-03-06T19:32:58.218Z,74.53
2019-03-06T19:35:40.041Z,74.12
2019-03-06T19:38:12.990Z,74.98
2019-03-06T19:40:44.291Z,74.84
2019-03-06T19:43:15.883Z,74.54
2019-03-06T19:45:47.268Z,75.06
2019-03-06T19:48:18.455Z,75.25
2019-03-06T19:50:50.064Z,75.37
2019-03-06T19:53:21.395Z,75.23
2019-03-06T19:55:53.078Z,74.79
2019-03-06T19:58:24.458Z,74.96
2019-03-06T20:00:55.973Z,74.98
2019-03-06T20:03:27.650Z,75.28
2019-03-06T20:05:59.120Z,74.76
2019-03-06T20:08:30.442Z,75.27
2019-03-06T20:11:01.827Z,75.58
2019-03-06T20:13:33.097Z,75.62
2019-03-06T20:16:04.643Z,76.14
2019-03-06T20:18:35.988Z,77.23
2019-03-06T20:21:11.241Z,76.77
2019-03-06T20:23:42.468Z,76.35
2019-03-06T20:26:14.864Z,76.51
2019-03-06T20:28:47.330Z,77.29
2019-03-06T20:31:18.850Z,76.93
2019-03-06T20:33:51.431Z,76.39
2019-03-06T20:36:26.013Z,76.34
2019-03-06T20:38:57.359Z,77.34
2019-03-06T20:41:28.713Z,78.00
2019-03-06T20:44:00.121Z,78.20
2019-03-06T20:46:31.279Z,77.35
2019-03-06T20:49:02.768Z,77.60
2019-03-06T20:51:37.384Z,77.66
2019-03-06T20:54:10.112Z,78.55
2019-03-06T20:56:41.469Z,79.11
2019-03-06T20:59:12.831Z,78.75
2019-03-06T21:01:46.253Z,78.49
2019-03-06T21:04:17.419Z,78.58
2019-03-06T21:06:49.209Z,78.45
2019-03-06T21:09:20.626Z,78.77
2019-03-06T21:11:52.579Z,78.74
2019-03-06T21:14:24.053Z,78.82
2019-03-06T21:16:55.536Z,78.90
2019-03-06T21:19:26.838Z,79.55
2019-03-06T21:21:58.246Z,79.16
2019-03-06T21:24:32.295Z,79.31
2019-03-06T21:27:03.662Z,79.57
2019-03-06T21:29:35.005Z,79.47
2019-03-06T21:32:06.459Z,79.23
2019-03-06T21:34:37.844Z,79.42
2019-03-06T21:37:09.266Z,78.61
2019-03-06T21:39:40.512Z,78.75
2019-03-06T21:42:11.751Z,78.85
2019-03-06T21:44:43.001Z,78.85
2019-03-06T21:47:14.351Z,78.23
2019-03-06T21:49:45.793Z,78.55
2019-03-06T21:52:17.002Z,77.64
2019-03-06T21:54:48.345Z,77.23
2019-03-06T21:57:19.683Z,77.37
2019-03-06T21:59:50.959Z,77.66
2019-03-06T22:02:22.671Z,77.49
2019-03-06T22:04:54.111Z,76.46
2019-03-06T22:07:25.462Z,76.12
2019-03-06T22:09:56.871Z,76.30
2019-03-06T22:12:28.121Z,76.01
2019-03-06T22:14:59.515Z,75.93
2019-03-06T22:17:30.884Z,75.73
2019-03-06T22:20:02.178Z,76.37
2019-03-06T22:22:33.501Z,76.10
2019-03-06T22:25:05.195Z,76.20
2019-03-06T22:27:36.669Z,76.11
2019-03-06T22:30:11.500Z,76.63
2019-03-06T22:32:42.798Z,76.82
2019-03-06T22:35:14.177Z,77.12
2019-03-06T22:37:45.666Z,77.39
2019-03-06T22:40:17.357Z,77.46
2019-03-06T22:42:48.765Z,77.84
2019-03-06T22:45:20.311Z,78.24
2019-03-06T22:47:51.692Z,77.97
2019-03-06T22:50:25.910Z,78.03
2019-03-06T22:52:57.307Z,77.68
2019-03-06T22:55:28.570Z,77.71
2019-03-06T22:57:59.872Z,78.34
2019-03-06T23:01:00.282Z,78.42
2019-03-06T23:03:33.139Z,78.54
2019-03-06T23:06:05.027Z,78.51
2019-03-06T23:08:36.435Z,78.10
2019-03-06T23:11:08.607Z,78.49
2019-03-06T23:13:41.846Z,78.25
2019-03-06T23:16:13.051Z,78.59
2019-03-06T23:18:44.300Z,78.74
2019-03-06T23:21:15.713Z,78.43
2019-03-06T23:23:46.951Z,78.53
2019-03-06T23:26:18.196Z,78.08
2019-03-06T23:28:49.540Z,76.88
2019-03-06T23:31:20.858Z,77.47
2019-03-06T23:33:52.030Z,77.65
2019-03-06T23:36:23.337Z,77.33
2019-03-06T23:39:12.917Z,77.24
2019-03-06T23:41:44.331Z,77.43
2019-03-06T23:44:17.292Z,77.70
2019-03-06T23:46:48.549Z,78.03
2019-03-06T23:49:19.791Z,77.43
2019-03-06T23:51:57.273Z,76.99
2019-03-06T23:54:28.644Z,77.39
2019-03-06T23:56:59.951Z,76.98
2019-03-06T23:59:31.173Z,77.54
